sensor_id;sensor_type;location;lat;lon;timestamp;P1;durP1;ratioP1;P2;durP2;ratioP2
14817;SDS011;7500;57.698;11.986;2022-11-06T00:02:00;9.93;;;1.97;;
14817;SDS011;7500;57.698;11.986;2022-11-06T00:04:27;6.80;;;1.80;;
14817;SDS011;7500;57.698;11.986;2022-11-06T00:06:56;10.43;;;1.80;;
14817;SDS011;7500;57.698;11.986;2022-11-06T00:09:21;3.77;;;1.43;;
14817;SDS011;7500;57.698;11.986;2022-11-06T00:11:48;6.97;;;1.50;;
14817;SDS011;7500;57.698;11.986;2022-11-06T00:14:17;5.13;;;1.57;;
14817;SDS011;7500;57.698;11.986;2022-11-06T00:16:44;5.27;;;1.30;;
14817;SDS011;7500;57.698;11.986;2022-11-06T00:19:12;6.57;;;1.83;;
14817;SDS011;7500;57.698;11.986;2022-11-06T00:21:40;5.90;;;1.70;;
14817;SDS011;7500;57.698;11.986;2022-11-06T00:24:09;5.90;;;1.60;;
14817;SDS011;7500;57.698;11.986;2022-11-06T00:26:38;6.10;;;1.50;;
14817;SDS011;7500;57.698;11.986;2022-11-06T00:29:05;7.37;;;1.60;;
14817;SDS011;7500;57.698;11.986;2022-11-06T00:31:33;7.03;;;1.50;;
14817;SDS011;7500;57.698;11.986;2022-11-06T00:34:01;7.17;;;1.57;;
14817;SDS011;7500;57.698;11.986;2022-11-06T00:36:28;6.10;;;1.33;;
14817;SDS011;7500;57.698;11.986;2022-11-06T00:38:56;5.47;;;1.60;;
14817;SDS011;7500;57.698;11.986;2022-11-06T00:41:25;5.33;;;1.67;;
14817;SDS011;7500;57.698;11.986;2022-11-06T00:43:55;7.00;;;1.63;;
14817;SDS011;7500;57.698;11.986;2022-11-06T00:46:24;9.13;;;1.70;;
14817;SDS011;7500;57.698;11.986;2022-11-06T00:48:51;7.00;;;1.80;;
14817;SDS011;7500;57.698;11.986;2022-11-06T00:51:20;5.00;;;1.53;;
14817;SDS011;7500;57.698;11.986;2022-11-06T00:53:52;6.13;;;1.70;;
14817;SDS011;7500;57.698;11.986;2022-11-06T00:56:20;7.90;;;1.80;;
14817;SDS011;7500;57.698;11.986;2022-11-06T00:58:48;7.63;;;2.10;;
14817;SDS011;7500;57.698;11.986;2022-11-06T01:01:15;7.63;;;1.57;;
14817;SDS011;7500;57.698;11.986;2022-11-06T01:03:45;5.77;;;1.63;;
14817;SDS011;7500;57.698;11.986;2022-11-06T01:06:14;5.47;;;1.37;;
14817;SDS011;7500;57.698;11.986;2022-11-06T01:08:42;7.17;;;1.67;;
14817;SDS011;7500;57.698;11.986;2022-11-06T01:11:10;5.33;;;2.10;;
14817;SDS011;7500;57.698;11.986;2022-11-06T01:13:40;4.70;;;1.60;;
14817;SDS011;7500;57.698;11.986;2022-11-06T01:16:09;6.13;;;1.53;;
14817;SDS011;7500;57.698;11.986;2022-11-06T01:18:38;6.53;;;1.63;;
14817;SDS011;7500;57.698;11.986;2022-11-06T01:21:07;4.83;;;1.50;;
14817;SDS011;7500;57.698;11.986;2022-11-06T01:23:35;7.17;;;1.57;;
14817;SDS011;7500;57.698;11.986;2022-11-06T01:26:03;8.27;;;1.87;;
14817;SDS011;7500;57.698;11.986;2022-11-06T01:28:32;9.57;;;1.90;;
14817;SDS011;7500;57.698;11.986;2022-11-06T01:31:00;6.70;;;1.70;;
14817;SDS011;7500;57.698;11.986;2022-11-06T01:33:29;7.57;;;1.93;;
14817;SDS011;7500;57.698;11.986;2022-11-06T01:35:57;5.83;;;1.60;;
14817;SDS011;7500;57.698;11.986;2022-11-06T01:38:24;5.40;;;1.93;;
14817;SDS011;7500;57.698;11.986;2022-11-06T01:40:51;5.80;;;1.50;;
14817;SDS011;7500;57.698;11.986;2022-11-06T01:43:19;4.00;;;1.73;;
14817;SDS011;7500;57.698;11.986;2022-11-06T01:45:48;7.47;;;1.80;;
14817;SDS011;7500;57.698;11.986;2022-11-06T01:48:17;8.13;;;1.60;;
14817;SDS011;7500;57.698;11.986;2022-11-06T01:50:48;6.97;;;1.70;;
14817;SDS011;7500;57.698;11.986;2022-11-06T01:53:19;8.47;;;2.03;;
14817;SDS011;7500;57.698;11.986;2022-11-06T01:55:48;4.57;;;1.73;;
14817;SDS011;7500;57.698;11.986;2022-11-06T01:58:19;7.50;;;1.80;;
14817;SDS011;7500;57.698;11.986;2022-11-06T02:00:48;9.57;;;2.10;;
14817;SDS011;7500;57.698;11.986;2022-11-06T02:03:16;12.30;;;2.20;;
14817;SDS011;7500;57.698;11.986;2022-11-06T02:05:43;7.00;;;2.10;;
14817;SDS011;7500;57.698;11.986;2022-11-06T02:08:12;10.43;;;2.40;;
14817;SDS011;7500;57.698;11.986;2022-11-06T02:10:44;9.57;;;2.30;;
14817;SDS011;7500;57.698;11.986;2022-11-06T02:13:15;6.40;;;1.93;;
14817;SDS011;7500;57.698;11.986;2022-11-06T02:15:47;5.63;;;1.80;;
14817;SDS011;7500;57.698;11.986;2022-11-06T02:18:25;8.20;;;1.87;;
14817;SDS011;7500;57.698;11.986;2022-11-06T02:21:18;10.60;;;2.37;;
14817;SDS011;7500;57.698;11.986;2022-11-06T02:24:06;7.70;;;2.03;;
14817;SDS011;7500;57.698;11.986;2022-11-06T02:26:50;8.50;;;1.87;;
14817;SDS011;7500;57.698;11.986;2022-11-06T02:29:25;10.17;;;2.80;;
14817;SDS011;7500;57.698;11.986;2022-11-06T02:31:57;14.07;;;2.63;;
14817;SDS011;7500;57.698;11.986;2022-11-06T02:34:34;9.00;;;2.30;;
14817;SDS011;7500;57.698;11.986;2022-11-06T02:37:05;11.37;;;3.17;;
14817;SDS011;7500;57.698;11.986;2022-11-06T02:39:36;12.50;;;2.70;;
14817;SDS011;7500;57.698;11.986;2022-11-06T02:42:07;9.30;;;2.80;;
14817;SDS011;7500;57.698;11.986;2022-11-06T02:44:37;9.77;;;2.33;;
14817;SDS011;7500;57.698;11.986;2022-11-06T02:47:07;13.93;;;2.83;;
14817;SDS011;7500;57.698;11.986;2022-11-06T02:49:39;15.17;;;2.80;;
14817;SDS011;7500;57.698;11.986;2022-11-06T02:52:11;13.87;;;3.43;;
14817;SDS011;7500;57.698;11.986;2022-11-06T02:54:42;15.63;;;3.80;;
14817;SDS011;7500;57.698;11.986;2022-11-06T02:57:13;16.00;;;3.70;;
14817;SDS011;7500;57.698;11.986;2022-11-06T02:59:44;15.93;;;3.80;;
14817;SDS011;7500;57.698;11.986;2022-11-06T03:02:16;15.00;;;4.30;;
14817;SDS011;7500;57.698;11.986;2022-11-06T03:04:48;12.20;;;4.13;;
14817;SDS011;7500;57.698;11.986;2022-11-06T03:07:19;25.83;;;5.03;;
14817;SDS011;7500;57.698;11.986;2022-11-06T03:09:52;11.80;;;4.13;;
14817;SDS011;7500;57.698;11.986;2022-11-06T03:12:22;21.67;;;5.47;;
14817;SDS011;7500;57.698;11.986;2022-11-06T03:14:54;17.23;;;5.50;;
14817;SDS011;7500;57.698;11.986;2022-11-06T03:17:28;17.83;;;6.13;;
14817;SDS011;7500;57.698;11.986;2022-11-06T03:20:05;18.50;;;5.43;;
14817;SDS011;7500;57.698;11.986;2022-11-06T03:22:45;18.07;;;6.00;;
14817;SDS011;7500;57.698;11.986;2022-11-06T03:25:16;19.27;;;5.07;;
14817;SDS011;7500;57.698;11.986;2022-11-06T03:27:48;15.90;;;6.10;;
14817;SDS011;7500;57.698;11.986;2022-11-06T03:30:23;20.80;;;6.17;;
14817;SDS011;7500;57.698;11.986;2022-11-06T03:32:52;15.63;;;5.07;;
14817;SDS011;7500;57.698;11.986;2022-11-06T03:35:23;15.53;;;5.70;;
14817;SDS011;7500;57.698;11.986;2022-11-06T03:37:55;17.77;;;4.93;;
14817;SDS011;7500;57.698;11.986;2022-11-06T03:40:26;15.47;;;5.33;;
14817;SDS011;7500;57.698;11.986;2022-11-06T03:42:58;18.67;;;5.33;;
14817;SDS011;7500;57.698;11.986;2022-11-06T03:45:27;14.20;;;5.37;;
14817;SDS011;7500;57.698;11.986;2022-11-06T03:47:58;20.17;;;5.47;;
14817;SDS011;7500;57.698;11.986;2022-11-06T03:50:29;16.60;;;5.80;;
14817;SDS011;7500;57.698;11.986;2022-11-06T03:53:02;16.00;;;6.47;;
14817;SDS011;7500;57.698;11.986;2022-11-06T03:55:33;15.87;;;5.60;;
14817;SDS011;7500;57.698;11.986;2022-11-06T03:58:08;23.73;;;6.20;;
14817;SDS011;7500;57.698;11.986;2022-11-06T04:00:39;19.57;;;7.03;;
14817;SDS011;7500;57.698;11.986;2022-11-06T04:03:09;14.47;;;6.20;;
14817;SDS011;7500;57.698;11.986;2022-11-06T04:05:42;19.90;;;7.60;;
14817;SDS011;7500;57.698;11.986;2022-11-06T04:08:12;13.20;;;5.70;;
14817;SDS011;7500;57.698;11.986;2022-11-06T04:11:00;18.03;;;6.90;;
14817;SDS011;7500;57.698;11.986;2022-11-06T04:13:49;19.00;;;6.57;;
14817;SDS011;7500;57.698;11.986;2022-11-06T04:16:26;20.40;;;7.60;;
14817;SDS011;7500;57.698;11.986;2022-11-06T04:18:57;17.50;;;7.20;;
14817;SDS011;7500;57.698;11.986;2022-11-06T04:21:25;17.30;;;6.93;;
14817;SDS011;7500;57.698;11.986;2022-11-06T04:24:05;16.77;;;8.10;;
14817;SDS011;7500;57.698;11.986;2022-11-06T04:27:02;20.40;;;8.00;;
14817;SDS011;7500;57.698;11.986;2022-11-06T04:29:51;18.27;;;8.47;;
14817;SDS011;7500;57.698;11.986;2022-11-06T04:32:29;18.80;;;7.73;;
14817;SDS011;7500;57.698;11.986;2022-11-06T04:35:14;23.33;;;8.70;;
14817;SDS011;7500;57.698;11.986;2022-11-06T04:37:49;22.13;;;9.33;;
14817;SDS011;7500;57.698;11.986;2022-11-06T04:40:22;19.77;;;9.30;;
14817;SDS011;7500;57.698;11.986;2022-11-06T04:42:55;17.23;;;9.60;;
14817;SDS011;7500;57.698;11.986;2022-11-06T04:45:30;19.93;;;9.00;;
14817;SDS011;7500;57.698;11.986;2022-11-06T04:48:00;24.23;;;10.77;;
14817;SDS011;7500;57.698;11.986;2022-11-06T04:50:28;23.57;;;11.27;;
14817;SDS011;7500;57.698;11.986;2022-11-06T04:52:59;28.57;;;11.20;;
14817;SDS011;7500;57.698;11.986;2022-11-06T04:55:28;27.13;;;12.23;;
14817;SDS011;7500;57.698;11.986;2022-11-06T04:57:55;23.30;;;13.30;;
14817;SDS011;7500;57.698;11.986;2022-11-06T05:00:22;25.17;;;13.00;;
14817;SDS011;7500;57.698;11.986;2022-11-06T05:02:50;22.80;;;13.33;;
14817;SDS011;7500;57.698;11.986;2022-11-06T05:05:17;24.07;;;12.77;;
14817;SDS011;7500;57.698;11.986;2022-11-06T05:07:44;27.83;;;14.30;;
14817;SDS011;7500;57.698;11.986;2022-11-06T05:10:11;33.90;;;16.00;;
14817;SDS011;7500;57.698;11.986;2022-11-06T05:12:38;26.37;;;15.43;;
14817;SDS011;7500;57.698;11.986;2022-11-06T05:15:05;25.60;;;15.13;;
14817;SDS011;7500;57.698;11.986;2022-11-06T05:17:32;26.70;;;14.30;;
14817;SDS011;7500;57.698;11.986;2022-11-06T05:20:01;35.70;;;15.03;;
14817;SDS011;7500;57.698;11.986;2022-11-06T05:22:28;25.90;;;14.47;;
14817;SDS011;7500;57.698;11.986;2022-11-06T05:25:12;26.63;;;15.47;;
14817;SDS011;7500;57.698;11.986;2022-11-06T05:27:38;23.33;;;14.67;;
14817;SDS011;7500;57.698;11.986;2022-11-06T05:30:06;30.10;;;14.20;;
14817;SDS011;7500;57.698;11.986;2022-11-06T05:32:34;22.13;;;12.20;;
14817;SDS011;7500;57.698;11.986;2022-11-06T05:35:02;28.27;;;14.33;;
14817;SDS011;7500;57.698;11.986;2022-11-06T05:37:30;18.40;;;13.37;;
14817;SDS011;7500;57.698;11.986;2022-11-06T05:39:56;26.07;;;13.87;;
14817;SDS011;7500;57.698;11.986;2022-11-06T05:42:23;20.20;;;11.23;;
14817;SDS011;7500;57.698;11.986;2022-11-06T05:44:50;19.20;;;12.23;;
14817;SDS011;7500;57.698;11.986;2022-11-06T05:47:17;16.63;;;12.00;;
14817;SDS011;7500;57.698;11.986;2022-11-06T05:49:44;16.17;;;11.20;;
14817;SDS011;7500;57.698;11.986;2022-11-06T05:52:12;15.33;;;10.10;;
14817;SDS011;7500;57.698;11.986;2022-11-06T05:54:39;14.20;;;9.07;;
14817;SDS011;7500;57.698;11.986;2022-11-06T05:57:06;13.80;;;9.37;;
14817;SDS011;7500;57.698;11.986;2022-11-06T05:59:32;17.33;;;10.33;;
14817;SDS011;7500;57.698;11.986;2022-11-06T06:01:59;13.27;;;9.87;;
14817;SDS011;7500;57.698;11.986;2022-11-06T06:04:26;21.90;;;11.37;;
14817;SDS011;7500;57.698;11.986;2022-11-06T06:06:53;22.67;;;10.50;;
14817;SDS011;7500;57.698;11.986;2022-11-06T06:09:21;26.67;;;11.53;;
14817;SDS011;7500;57.698;11.986;2022-11-06T06:11:49;35.30;;;11.20;;
14817;SDS011;7500;57.698;11.986;2022-11-06T06:14:16;39.27;;;10.17;;
14817;SDS011;7500;57.698;11.986;2022-11-06T06:16:43;43.83;;;7.03;;
14817;SDS011;7500;57.698;11.986;2022-11-06T06:19:10;13.00;;;6.60;;
14817;SDS011;7500;57.698;11.986;2022-11-06T06:21:37;18.17;;;6.27;;
14817;SDS011;7500;57.698;11.986;2022-11-06T06:24:04;21.30;;;6.23;;
14817;SDS011;7500;57.698;11.986;2022-11-06T06:26:33;22.63;;;7.43;;
14817;SDS011;7500;57.698;11.986;2022-11-06T06:29:00;13.13;;;5.53;;
14817;SDS011;7500;57.698;11.986;2022-11-06T06:31:27;18.00;;;6.03;;
14817;SDS011;7500;57.698;11.986;2022-11-06T06:33:54;23.60;;;5.60;;
14817;SDS011;7500;57.698;11.986;2022-11-06T06:36:20;10.67;;;3.33;;
14817;SDS011;7500;57.698;11.986;2022-11-06T06:38:47;9.03;;;3.10;;
14817;SDS011;7500;57.698;11.986;2022-11-06T06:41:14;4.70;;;2.57;;
14817;SDS011;7500;57.698;11.986;2022-11-06T06:43:42;26.70;;;3.13;;
14817;SDS011;7500;57.698;11.986;2022-11-06T06:46:09;8.73;;;2.13;;
14817;SDS011;7500;57.698;11.986;2022-11-06T06:48:36;27.70;;;3.33;;
14817;SDS011;7500;57.698;11.986;2022-11-06T06:51:03;2.17;;;1.80;;
14817;SDS011;7500;57.698;11.986;2022-11-06T06:53:32;16.03;;;2.63;;
14817;SDS011;7500;57.698;11.986;2022-11-06T06:56:00;4.27;;;2.20;;
14817;SDS011;7500;57.698;11.986;2022-11-06T06:58:27;6.13;;;2.20;;
14817;SDS011;7500;57.698;11.986;2022-11-06T07:00:55;26.87;;;3.10;;
14817;SDS011;7500;57.698;11.986;2022-11-06T07:03:24;8.97;;;2.70;;
14817;SDS011;7500;57.698;11.986;2022-11-06T07:05:52;2.97;;;2.50;;
14817;SDS011;7500;57.698;11.986;2022-11-06T07:08:19;6.23;;;3.13;;
14817;SDS011;7500;57.698;11.986;2022-11-06T07:10:45;10.43;;;3.23;;
14817;SDS011;7500;57.698;11.986;2022-11-06T07:13:12;7.57;;;2.83;;
14817;SDS011;7500;57.698;11.986;2022-11-06T07:15:39;5.37;;;3.07;;
14817;SDS011;7500;57.698;11.986;2022-11-06T07:18:07;9.90;;;3.20;;
14817;SDS011;7500;57.698;11.986;2022-11-06T07:20:34;20.90;;;3.90;;
14817;SDS011;7500;57.698;11.986;2022-11-06T07:23:04;13.63;;;4.80;;
14817;SDS011;7500;57.698;11.986;2022-11-06T07:25:31;9.93;;;4.10;;
14817;SDS011;7500;57.698;11.986;2022-11-06T07:27:58;12.73;;;4.30;;
14817;SDS011;7500;57.698;11.986;2022-11-06T07:30:26;26.20;;;7.47;;
14817;SDS011;7500;57.698;11.986;2022-11-06T07:32:53;20.13;;;6.37;;
14817;SDS011;7500;57.698;11.986;2022-11-06T07:35:21;20.07;;;5.30;;
14817;SDS011;7500;57.698;11.986;2022-11-06T07:37:48;0.00;;;0.00;;
14817;SDS011;7500;57.698;11.986;2022-11-06T07:40:15;0.00;;;0.00;;
14817;SDS011;7500;57.698;11.986;2022-11-06T07:42:42;0.00;;;0.00;;
14817;SDS011;7500;57.698;11.986;2022-11-06T07:45:09;0.10;;;0.10;;
14817;SDS011;7500;57.698;11.986;2022-11-06T07:47:36;0.00;;;0.00;;
14817;SDS011;7500;57.698;11.986;2022-11-06T07:50:03;0.00;;;0.00;;
14817;SDS011;7500;57.698;11.986;2022-11-06T07:52:32;0.83;;;0.67;;
14817;SDS011;7500;57.698;11.986;2022-11-06T07:54:59;0.00;;;0.00;;
14817;SDS011;7500;57.698;11.986;2022-11-06T07:57:26;0.00;;;0.00;;
14817;SDS011;7500;57.698;11.986;2022-11-06T07:59:52;0.00;;;0.00;;
14817;SDS011;7500;57.698;11.986;2022-11-06T08:02:19;0.00;;;0.00;;
14817;SDS011;7500;57.698;11.986;2022-11-06T08:04:46;0.00;;;0.00;;
14817;SDS011;7500;57.698;11.986;2022-11-06T08:07:13;0.70;;;0.43;;
14817;SDS011;7500;57.698;11.986;2022-11-06T08:09:41;0.00;;;0.00;;
14817;SDS011;7500;57.698;11.986;2022-11-06T08:12:08;0.37;;;0.27;;
14817;SDS011;7500;57.698;11.986;2022-11-06T08:14:34;0.00;;;0.00;;
14817;SDS011;7500;57.698;11.986;2022-11-06T08:17:01;0.00;;;0.00;;
14817;SDS011;7500;57.698;11.986;2022-11-06T08:19:28;0.00;;;0.00;;
14817;SDS011;7500;57.698;11.986;2022-11-06T08:21:55;0.00;;;0.00;;
14817;SDS011;7500;57.698;11.986;2022-11-06T08:24:22;0.00;;;0.00;;
14817;SDS011;7500;57.698;11.986;2022-11-06T08:26:50;0.00;;;0.00;;
14817;SDS011;7500;57.698;11.986;2022-11-06T08:29:17;0.10;;;0.10;;
14817;SDS011;7500;57.698;11.986;2022-11-06T08:31:43;0.00;;;0.00;;
14817;SDS011;7500;57.698;11.986;2022-11-06T08:34:11;0.00;;;0.00;;
14817;SDS011;7500;57.698;11.986;2022-11-06T08:36:38;0.00;;;0.00;;
14817;SDS011;7500;57.698;11.986;2022-11-06T08:39:09;0.00;;;0.00;;
14817;SDS011;7500;57.698;11.986;2022-11-06T08:41:37;0.00;;;0.00;;
14817;SDS011;7500;57.698;11.986;2022-11-06T08:44:05;0.00;;;0.00;;
14817;SDS011;7500;57.698;11.986;2022-11-06T08:46:32;0.00;;;0.00;;
14817;SDS011;7500;57.698;11.986;2022-11-06T08:48:59;0.27;;;0.27;;
14817;SDS011;7500;57.698;11.986;2022-11-06T08:51:26;0.00;;;0.00;;
14817;SDS011;7500;57.698;11.986;2022-11-06T08:53:53;0.40;;;0.20;;
14817;SDS011;7500;57.698;11.986;2022-11-06T08:56:20;0.00;;;0.00;;
14817;SDS011;7500;57.698;11.986;2022-11-06T08:58:47;0.00;;;0.00;;
14817;SDS011;7500;57.698;11.986;2022-11-06T09:01:15;0.00;;;0.00;;
14817;SDS011;7500;57.698;11.986;2022-11-06T09:03:42;0.00;;;0.00;;
14817;SDS011;7500;57.698;11.986;2022-11-06T09:06:09;0.00;;;0.00;;
14817;SDS011;7500;57.698;11.986;2022-11-06T09:08:36;20.70;;;6.20;;
14817;SDS011;7500;57.698;11.986;2022-11-06T09:11:04;25.10;;;6.03;;
14817;SDS011;7500;57.698;11.986;2022-11-06T09:13:32;29.47;;;5.63;;
14817;SDS011;7500;57.698;11.986;2022-11-06T09:15:59;23.27;;;5.87;;
14817;SDS011;7500;57.698;11.986;2022-11-06T09:18:28;21.67;;;5.43;;
14817;SDS011;7500;57.698;11.986;2022-11-06T09:20:55;26.23;;;5.73;;
14817;SDS011;7500;57.698;11.986;2022-11-06T09:23:22;23.03;;;5.93;;
14817;SDS011;7500;57.698;11.986;2022-11-06T09:25:49;50.67;;;6.53;;
14817;SDS011;7500;57.698;11.986;2022-11-06T09:28:23;19.77;;;5.47;;
14817;SDS011;7500;57.698;11.986;2022-11-06T09:30:49;13.77;;;4.77;;
14817;SDS011;7500;57.698;11.986;2022-11-06T09:33:16;17.00;;;5.07;;
14817;SDS011;7500;57.698;11.986;2022-11-06T09:35:45;22.40;;;5.60;;
14817;SDS011;7500;57.698;11.986;2022-11-06T09:38:12;21.10;;;5.87;;
14817;SDS011;7500;57.698;11.986;2022-11-06T09:40:41;19.00;;;5.73;;
14817;SDS011;7500;57.698;11.986;2022-11-06T09:46:11;20.70;;;4.63;;
14817;SDS011;7500;57.698;11.986;2022-11-06T09:48:48;21.87;;;4.97;;
14817;SDS011;7500;57.698;11.986;2022-11-06T09:51:22;23.30;;;6.80;;
14817;SDS011;7500;57.698;11.986;2022-11-06T09:53:58;19.20;;;5.00;;
14817;SDS011;7500;57.698;11.986;2022-11-06T09:56:32;15.73;;;5.03;;
14817;SDS011;7500;57.698;11.986;2022-11-06T09:59:02;19.03;;;5.03;;
14817;SDS011;7500;57.698;11.986;2022-11-06T10:01:34;17.23;;;4.83;;
14817;SDS011;7500;57.698;11.986;2022-11-06T10:04:04;11.33;;;4.20;;
14817;SDS011;7500;57.698;11.986;2022-11-06T10:06:32;12.17;;;4.07;;
14817;SDS011;7500;57.698;11.986;2022-11-06T10:09:00;16.10;;;4.00;;
14817;SDS011;7500;57.698;11.986;2022-11-06T10:11:42;10.93;;;3.60;;
14817;SDS011;7500;57.698;11.986;2022-11-06T10:14:20;21.40;;;4.70;;
14817;SDS011;7500;57.698;11.986;2022-11-06T10:16:58;12.80;;;3.90;;
14817;SDS011;7500;57.698;11.986;2022-11-06T10:19:34;22.07;;;4.70;;
14817;SDS011;7500;57.698;11.986;2022-11-06T10:22:10;15.37;;;3.77;;
14817;SDS011;7500;57.698;11.986;2022-11-06T10:24:43;17.27;;;3.73;;
14817;SDS011;7500;57.698;11.986;2022-11-06T10:27:13;14.13;;;3.87;;
14817;SDS011;7500;57.698;11.986;2022-11-06T10:29:46;17.43;;;4.53;;
14817;SDS011;7500;57.698;11.986;2022-11-06T10:32:29;15.27;;;3.83;;
14817;SDS011;7500;57.698;11.986;2022-11-06T10:35:15;15.83;;;3.40;;
14817;SDS011;7500;57.698;11.986;2022-11-06T10:37:48;12.27;;;3.10;;
14817;SDS011;7500;57.698;11.986;2022-11-06T10:40:21;13.20;;;3.07;;
14817;SDS011;7500;57.698;11.986;2022-11-06T10:42:53;12.70;;;3.00;;
14817;SDS011;7500;57.698;11.986;2022-11-06T10:45:23;12.33;;;3.40;;
14817;SDS011;7500;57.698;11.986;2022-11-06T10:47:54;11.23;;;3.40;;
14817;SDS011;7500;57.698;11.986;2022-11-06T10:50:31;14.53;;;2.70;;
14817;SDS011;7500;57.698;11.986;2022-11-06T10:53:10;14.83;;;3.70;;
14817;SDS011;7500;57.698;11.986;2022-11-06T10:56:02;11.77;;;2.50;;
14817;SDS011;7500;57.698;11.986;2022-11-06T10:58:38;10.70;;;3.07;;
14817;SDS011;7500;57.698;11.986;2022-11-06T11:01:05;11.20;;;2.90;;
14817;SDS011;7500;57.698;11.986;2022-11-06T11:03:38;11.07;;;2.33;;
14817;SDS011;7500;57.698;11.986;2022-11-06T11:06:08;6.60;;;2.23;;
14817;SDS011;7500;57.698;11.986;2022-11-06T11:08:37;9.47;;;2.33;;
14817;SDS011;7500;57.698;11.986;2022-11-06T11:11:14;9.93;;;2.23;;
14817;SDS011;7500;57.698;11.986;2022-11-06T11:13:48;7.57;;;2.10;;
14817;SDS011;7500;57.698;11.986;2022-11-06T11:16:18;7.97;;;2.20;;
14817;SDS011;7500;57.698;11.986;2022-11-06T11:18:48;7.33;;;2.10;;
14817;SDS011;7500;57.698;11.986;2022-11-06T11:21:20;13.93;;;2.30;;
14817;SDS011;7500;57.698;11.986;2022-11-06T11:24:08;8.30;;;2.03;;
14817;SDS011;7500;57.698;11.986;2022-11-06T11:26:36;7.03;;;1.50;;
14817;SDS011;7500;57.698;11.986;2022-11-06T11:29:11;10.00;;;1.97;;
14817;SDS011;7500;57.698;11.986;2022-11-06T11:31:45;5.37;;;1.63;;
14817;SDS011;7500;57.698;11.986;2022-11-06T11:34:18;7.83;;;1.47;;
14817;SDS011;7500;57.698;11.986;2022-11-06T11:36:50;6.03;;;1.93;;
14817;SDS011;7500;57.698;11.986;2022-11-06T11:39:22;7.10;;;1.90;;
14817;SDS011;7500;57.698;11.986;2022-11-06T11:41:52;8.53;;;1.83;;
14817;SDS011;7500;57.698;11.986;2022-11-06T11:44:19;9.03;;;2.20;;
14817;SDS011;7500;57.698;11.986;2022-11-06T11:46:47;8.37;;;2.13;;
14817;SDS011;7500;57.698;11.986;2022-11-06T11:49:25;7.90;;;1.80;;
14817;SDS011;7500;57.698;11.986;2022-11-06T11:51:54;11.37;;;2.50;;
14817;SDS011;7500;57.698;11.986;2022-11-06T11:54:24;9.17;;;2.03;;
14817;SDS011;7500;57.698;11.986;2022-11-06T11:56:53;11.50;;;1.97;;
14817;SDS011;7500;57.698;11.986;2022-11-06T11:59:23;8.57;;;2.00;;
14817;SDS011;7500;57.698;11.986;2022-11-06T12:01:55;7.97;;;1.87;;
14817;SDS011;7500;57.698;11.986;2022-11-06T12:04:27;6.23;;;1.77;;
14817;SDS011;7500;57.698;11.986;2022-11-06T12:06:57;8.93;;;1.97;;
14817;SDS011;7500;57.698;11.986;2022-11-06T12:09:28;7.37;;;2.00;;
14817;SDS011;7500;57.698;11.986;2022-11-06T12:11:59;7.43;;;2.00;;
14817;SDS011;7500;57.698;11.986;2022-11-06T12:14:29;5.80;;;2.03;;
14817;SDS011;7500;57.698;11.986;2022-11-06T12:19:48;6.77;;;2.30;;
14817;SDS011;7500;57.698;11.986;2022-11-06T12:22:20;8.93;;;1.97;;
14817;SDS011;7500;57.698;11.986;2022-11-06T12:24:55;9.00;;;1.70;;
14817;SDS011;7500;57.698;11.986;2022-11-06T12:27:27;7.10;;;2.00;;
14817;SDS011;7500;57.698;11.986;2022-11-06T12:30:05;9.20;;;2.00;;
14817;SDS011;7500;57.698;11.986;2022-11-06T12:32:51;9.70;;;2.00;;
14817;SDS011;7500;57.698;11.986;2022-11-06T12:35:23;8.37;;;1.87;;
14817;SDS011;7500;57.698;11.986;2022-11-06T12:37:55;10.70;;;2.23;;
14817;SDS011;7500;57.698;11.986;2022-11-06T12:40:30;11.87;;;2.07;;
14817;SDS011;7500;57.698;11.986;2022-11-06T12:43:08;6.20;;;2.00;;
14817;SDS011;7500;57.698;11.986;2022-11-06T12:45:50;11.90;;;2.47;;
14817;SDS011;7500;57.698;11.986;2022-11-06T12:48:35;7.87;;;2.03;;
14817;SDS011;7500;57.698;11.986;2022-11-06T12:51:24;9.40;;;2.47;;
14817;SDS011;7500;57.698;11.986;2022-11-06T12:54:02;7.63;;;2.40;;
14817;SDS011;7500;57.698;11.986;2022-11-06T12:56:46;7.60;;;2.23;;
14817;SDS011;7500;57.698;11.986;2022-11-06T12:59:24;11.53;;;2.07;;
14817;SDS011;7500;57.698;11.986;2022-11-06T13:02:01;12.53;;;2.40;;
14817;SDS011;7500;57.698;11.986;2022-11-06T13:04:48;8.10;;;2.13;;
14817;SDS011;7500;57.698;11.986;2022-11-06T13:10:25;9.27;;;2.03;;
14817;SDS011;7500;57.698;11.986;2022-11-06T13:13:03;9.53;;;2.23;;
14817;SDS011;7500;57.698;11.986;2022-11-06T13:15:51;10.60;;;2.07;;
14817;SDS011;7500;57.698;11.986;2022-11-06T13:18:24;7.03;;;2.20;;
14817;SDS011;7500;57.698;11.986;2022-11-06T13:20:56;8.80;;;2.50;;
14817;SDS011;7500;57.698;11.986;2022-11-06T13:23:32;10.33;;;1.80;;
14817;SDS011;7500;57.698;11.986;2022-11-06T13:26:05;9.30;;;2.70;;
14817;SDS011;7500;57.698;11.986;2022-11-06T13:28:40;6.67;;;1.90;;
14817;SDS011;7500;57.698;11.986;2022-11-06T13:31:10;7.70;;;2.07;;
14817;SDS011;7500;57.698;11.986;2022-11-06T13:33:41;7.30;;;1.90;;
14817;SDS011;7500;57.698;11.986;2022-11-06T13:36:12;8.10;;;2.40;;
14817;SDS011;7500;57.698;11.986;2022-11-06T13:38:40;6.77;;;1.97;;
14817;SDS011;7500;57.698;11.986;2022-11-06T13:41:14;8.70;;;1.97;;
14817;SDS011;7500;57.698;11.986;2022-11-06T13:43:47;11.10;;;2.57;;
14817;SDS011;7500;57.698;11.986;2022-11-06T13:46:22;6.57;;;2.13;;
14817;SDS011;7500;57.698;11.986;2022-11-06T13:48:56;5.33;;;2.30;;
14817;SDS011;7500;57.698;11.986;2022-11-06T13:51:37;10.37;;;2.47;;
14817;SDS011;7500;57.698;11.986;2022-11-06T13:54:11;9.10;;;2.10;;
14817;SDS011;7500;57.698;11.986;2022-11-06T13:56:50;11.37;;;2.50;;
14817;SDS011;7500;57.698;11.986;2022-11-06T13:59:53;11.20;;;2.60;;
14817;SDS011;7500;57.698;11.986;2022-11-06T14:02:45;5.30;;;2.00;;
14817;SDS011;7500;57.698;11.986;2022-11-06T14:05:44;12.13;;;3.20;;
14817;SDS011;7500;57.698;11.986;2022-11-06T14:08:16;9.67;;;2.53;;
14817;SDS011;7500;57.698;11.986;2022-11-06T14:10:48;9.50;;;2.50;;
14817;SDS011;7500;57.698;11.986;2022-11-06T14:13:25;10.37;;;2.83;;
14817;SDS011;7500;57.698;11.986;2022-11-06T14:16:03;8.43;;;2.53;;
14817;SDS011;7500;57.698;11.986;2022-11-06T14:18:52;9.03;;;2.73;;
14817;SDS011;7500;57.698;11.986;2022-11-06T14:27:03;13.73;;;2.73;;
14817;SDS011;7500;57.698;11.986;2022-11-06T14:29:52;11.67;;;3.07;;
14817;SDS011;7500;57.698;11.986;2022-11-06T14:32:35;17.70;;;2.93;;
14817;SDS011;7500;57.698;11.986;2022-11-06T14:47:07;14.00;;;3.50;;
14817;SDS011;7500;57.698;11.986;2022-11-06T14:49:49;10.23;;;2.77;;
14817;SDS011;7500;57.698;11.986;2022-11-06T14:52:18;9.57;;;2.97;;
14817;SDS011;7500;57.698;11.986;2022-11-06T14:54:49;16.20;;;3.73;;
14817;SDS011;7500;57.698;11.986;2022-11-06T14:57:38;11.63;;;3.60;;
14817;SDS011;7500;57.698;11.986;2022-11-06T15:00:13;13.50;;;3.67;;
14817;SDS011;7500;57.698;11.986;2022-11-06T15:02:58;11.50;;;3.33;;
14817;SDS011;7500;57.698;11.986;2022-11-06T15:05:28;16.97;;;4.73;;
14817;SDS011;7500;57.698;11.986;2022-11-06T15:07:56;14.07;;;4.33;;
14817;SDS011;7500;57.698;11.986;2022-11-06T15:13:21;17.03;;;4.87;;
14817;SDS011;7500;57.698;11.986;2022-11-06T15:15:50;16.97;;;4.47;;
14817;SDS011;7500;57.698;11.986;2022-11-06T15:18:21;17.50;;;4.40;;
14817;SDS011;7500;57.698;11.986;2022-11-06T15:20:51;16.27;;;4.53;;
14817;SDS011;7500;57.698;11.986;2022-11-06T15:23:22;11.87;;;4.37;;
14817;SDS011;7500;57.698;11.986;2022-11-06T15:26:02;11.93;;;4.63;;
14817;SDS011;7500;57.698;11.986;2022-11-06T15:28:33;20.07;;;5.40;;
14817;SDS011;7500;57.698;11.986;2022-11-06T15:31:07;15.70;;;4.90;;
14817;SDS011;7500;57.698;11.986;2022-11-06T15:33:45;17.17;;;5.30;;